sensor_id;sensor_type;location;lat;lon;timestamp;P1;durP1;ratioP1;P2;durP2;ratioP2
7021;SDS011;3552;42.664;23.406;2022-09-29T00:01:08;11.50;;;4.40;;
7021;SDS011;3552;42.664;23.406;2022-09-29T00:03:36;7.90;;;4.13;;
7021;SDS011;3552;42.664;23.406;2022-09-29T00:06:08;9.87;;;4.00;;
7021;SDS011;3552;42.664;23.406;2022-09-29T00:08:38;6.90;;;3.90;;
7021;SDS011;3552;42.664;23.406;2022-09-29T00:11:07;12.47;;;4.20;;
7021;SDS011;3552;42.664;23.406;2022-09-29T00:13:37;6.97;;;3.80;;
7021;SDS011;3552;42.664;23.406;2022-09-29T00:16:04;6.17;;;4.00;;
7021;SDS011;3552;42.664;23.406;2022-09-29T00:18:33;6.23;;;3.43;;
7021;SDS011;3552;42.664;23.406;2022-09-29T00:21:01;8.27;;;3.57;;
7021;SDS011;3552;42.664;23.406;2022-09-29T00:23:29;7.10;;;3.50;;
7021;SDS011;3552;42.664;23.406;2022-09-29T00:25:59;6.30;;;3.80;;
7021;SDS011;3552;42.664;23.406;2022-09-29T00:28:27;7.13;;;3.93;;
7021;SDS011;3552;42.664;23.406;2022-09-29T00:30:58;7.47;;;3.77;;
7021;SDS011;3552;42.664;23.406;2022-09-29T00:33:27;9.70;;;4.00;;
7021;SDS011;3552;42.664;23.406;2022-09-29T00:35:56;10.17;;;4.10;;
7021;SDS011;3552;42.664;23.406;2022-09-29T00:38:25;10.63;;;4.03;;
7021;SDS011;3552;42.664;23.406;2022-09-29T00:40:53;10.50;;;4.30;;
7021;SDS011;3552;42.664;23.406;2022-09-29T00:43:22;8.30;;;3.43;;
7021;SDS011;3552;42.664;23.406;2022-09-29T00:45:51;6.90;;;3.80;;
7021;SDS011;3552;42.664;23.406;2022-09-29T00:48:23;6.30;;;3.57;;
7021;SDS011;3552;42.664;23.406;2022-09-29T00:50:57;6.63;;;3.23;;
7021;SDS011;3552;42.664;23.406;2022-09-29T00:53:25;7.57;;;3.60;;
7021;SDS011;3552;42.664;23.406;2022-09-29T00:55:55;9.10;;;3.10;;
7021;SDS011;3552;42.664;23.406;2022-09-29T00:58:26;4.37;;;3.20;;
7021;SDS011;3552;42.664;23.406;2022-09-29T01:00:58;6.03;;;3.20;;
7021;SDS011;3552;42.664;23.406;2022-09-29T01:03:28;9.43;;;3.47;;
7021;SDS011;3552;42.664;23.406;2022-09-29T01:06:00;5.67;;;3.10;;
7021;SDS011;3552;42.664;23.406;2022-09-29T01:08:36;6.27;;;3.83;;
7021;SDS011;3552;42.664;23.406;2022-09-29T01:11:05;11.60;;;3.60;;
7021;SDS011;3552;42.664;23.406;2022-09-29T01:13:33;6.73;;;3.83;;
7021;SDS011;3552;42.664;23.406;2022-09-29T01:16:01;6.53;;;3.13;;
7021;SDS011;3552;42.664;23.406;2022-09-29T01:18:29;4.87;;;3.10;;
7021;SDS011;3552;42.664;23.406;2022-09-29T01:20:59;3.97;;;3.00;;
7021;SDS011;3552;42.664;23.406;2022-09-29T01:23:45;5.17;;;2.73;;
7021;SDS011;3552;42.664;23.406;2022-09-29T01:29:36;10.57;;;2.90;;
7021;SDS011;3552;42.664;23.406;2022-09-29T01:35:22;4.73;;;3.07;;
7021;SDS011;3552;42.664;23.406;2022-09-29T01:38:01;5.80;;;2.93;;
7021;SDS011;3552;42.664;23.406;2022-09-29T01:40:38;3.37;;;2.60;;
7021;SDS011;3552;42.664;23.406;2022-09-29T01:43:14;8.33;;;3.13;;
7021;SDS011;3552;42.664;23.406;2022-09-29T01:45:47;5.17;;;3.13;;
7021;SDS011;3552;42.664;23.406;2022-09-29T01:48:21;6.30;;;3.13;;
7021;SDS011;3552;42.664;23.406;2022-09-29T01:50:54;6.97;;;3.10;;
7021;SDS011;3552;42.664;23.406;2022-09-29T01:53:25;3.83;;;2.77;;
7021;SDS011;3552;42.664;23.406;2022-09-29T01:55:59;9.37;;;3.37;;
7021;SDS011;3552;42.664;23.406;2022-09-29T01:58:32;12.13;;;3.40;;
7021;SDS011;3552;42.664;23.406;2022-09-29T02:01:05;15.77;;;3.47;;
7021;SDS011;3552;42.664;23.406;2022-09-29T02:03:42;3.63;;;3.13;;
7021;SDS011;3552;42.664;23.406;2022-09-29T02:06:14;4.17;;;3.40;;
7021;SDS011;3552;42.664;23.406;2022-09-29T02:08:47;7.33;;;4.20;;
7021;SDS011;3552;42.664;23.406;2022-09-29T02:11:18;7.33;;;4.10;;
7021;SDS011;3552;42.664;23.406;2022-09-29T02:13:47;6.97;;;4.00;;
7021;SDS011;3552;42.664;23.406;2022-09-29T02:16:18;9.87;;;4.57;;
7021;SDS011;3552;42.664;23.406;2022-09-29T02:18:54;11.53;;;7.13;;
7021;SDS011;3552;42.664;23.406;2022-09-29T02:21:26;12.70;;;7.47;;
7021;SDS011;3552;42.664;23.406;2022-09-29T02:23:55;10.80;;;8.03;;
7021;SDS011;3552;42.664;23.406;2022-09-29T02:26:23;12.47;;;7.63;;
7021;SDS011;3552;42.664;23.406;2022-09-29T02:28:54;7.27;;;5.17;;
7021;SDS011;3552;42.664;23.406;2022-09-29T02:31:21;9.57;;;5.23;;
7021;SDS011;3552;42.664;23.406;2022-09-29T02:33:49;10.97;;;5.63;;
7021;SDS011;3552;42.664;23.406;2022-09-29T02:36:21;6.97;;;5.13;;
7021;SDS011;3552;42.664;23.406;2022-09-29T02:38:59;16.10;;;4.63;;
7021;SDS011;3552;42.664;23.406;2022-09-29T02:41:34;8.90;;;4.40;;
7021;SDS011;3552;42.664;23.406;2022-09-29T02:44:23;10.10;;;4.90;;
7021;SDS011;3552;42.664;23.406;2022-09-29T02:50:00;10.13;;;5.27;;
7021;SDS011;3552;42.664;23.406;2022-09-29T02:52:45;5.57;;;4.17;;
7021;SDS011;3552;42.664;23.406;2022-09-29T02:55:19;7.13;;;3.67;;
7021;SDS011;3552;42.664;23.406;2022-09-29T02:57:51;8.23;;;4.27;;
7021;SDS011;3552;42.664;23.406;2022-09-29T03:00:24;9.60;;;4.13;;
7021;SDS011;3552;42.664;23.406;2022-09-29T03:02:52;7.83;;;3.70;;
7021;SDS011;3552;42.664;23.406;2022-09-29T03:05:20;13.50;;;3.70;;
7021;SDS011;3552;42.664;23.406;2022-09-29T03:07:50;5.73;;;3.20;;
7021;SDS011;3552;42.664;23.406;2022-09-29T03:10:17;9.77;;;4.03;;
7021;SDS011;3552;42.664;23.406;2022-09-29T03:12:45;7.83;;;3.57;;
7021;SDS011;3552;42.664;23.406;2022-09-29T03:15:13;6.57;;;3.73;;
7021;SDS011;3552;42.664;23.406;2022-09-29T03:17:40;22.23;;;5.00;;
7021;SDS011;3552;42.664;23.406;2022-09-29T03:20:08;7.00;;;3.67;;
7021;SDS011;3552;42.664;23.406;2022-09-29T03:22:36;6.23;;;3.50;;
7021;SDS011;3552;42.664;23.406;2022-09-29T03:25:05;9.60;;;3.60;;
7021;SDS011;3552;42.664;23.406;2022-09-29T03:27:34;6.33;;;3.37;;
7021;SDS011;3552;42.664;23.406;2022-09-29T03:30:02;7.27;;;3.60;;
7021;SDS011;3552;42.664;23.406;2022-09-29T03:32:30;13.87;;;3.97;;
7021;SDS011;3552;42.664;23.406;2022-09-29T03:34:58;7.57;;;3.70;;
7021;SDS011;3552;42.664;23.406;2022-09-29T03:37:25;7.63;;;3.70;;
7021;SDS011;3552;42.664;23.406;2022-09-29T03:39:52;8.63;;;4.00;;
7021;SDS011;3552;42.664;23.406;2022-09-29T03:42:20;6.03;;;3.13;;
7021;SDS011;3552;42.664;23.406;2022-09-29T03:44:48;6.97;;;3.33;;
7021;SDS011;3552;42.664;23.406;2022-09-29T03:47:15;4.83;;;3.30;;
7021;SDS011;3552;42.664;23.406;2022-09-29T03:49:42;13.00;;;4.33;;
7021;SDS011;3552;42.664;23.406;2022-09-29T03:52:09;10.30;;;4.03;;
7021;SDS011;3552;42.664;23.406;2022-09-29T03:54:36;10.77;;;4.83;;
7021;SDS011;3552;42.664;23.406;2022-09-29T03:57:05;7.53;;;4.30;;
7021;SDS011;3552;42.664;23.406;2022-09-29T03:59:34;16.37;;;4.63;;
7021;SDS011;3552;42.664;23.406;2022-09-29T04:02:00;7.77;;;4.70;;
7021;SDS011;3552;42.664;23.406;2022-09-29T04:04:28;11.93;;;3.90;;
7021;SDS011;3552;42.664;23.406;2022-09-29T04:06:55;12.17;;;3.77;;
7021;SDS011;3552;42.664;23.406;2022-09-29T04:09:22;7.37;;;3.60;;
7021;SDS011;3552;42.664;23.406;2022-09-29T04:11:50;4.00;;;3.03;;
7021;SDS011;3552;42.664;23.406;2022-09-29T04:14:17;4.37;;;3.67;;
7021;SDS011;3552;42.664;23.406;2022-09-29T04:16:45;10.27;;;3.67;;
7021;SDS011;3552;42.664;23.406;2022-09-29T04:19:12;11.57;;;4.20;;
7021;SDS011;3552;42.664;23.406;2022-09-29T04:21:39;8.83;;;3.90;;
7021;SDS011;3552;42.664;23.406;2022-09-29T04:24:06;15.20;;;3.70;;
7021;SDS011;3552;42.664;23.406;2022-09-29T04:26:33;6.10;;;3.53;;
7021;SDS011;3552;42.664;23.406;2022-09-29T04:29:00;8.03;;;3.70;;
7021;SDS011;3552;42.664;23.406;2022-09-29T04:31:27;9.73;;;3.50;;
7021;SDS011;3552;42.664;23.406;2022-09-29T04:33:56;10.50;;;4.20;;
7021;SDS011;3552;42.664;23.406;2022-09-29T04:36:23;10.03;;;3.57;;
7021;SDS011;3552;42.664;23.406;2022-09-29T04:38:49;11.83;;;4.47;;
7021;SDS011;3552;42.664;23.406;2022-09-29T04:41:18;6.83;;;4.17;;
7021;SDS011;3552;42.664;23.406;2022-09-29T04:43:45;10.70;;;4.23;;
7021;SDS011;3552;42.664;23.406;2022-09-29T04:46:13;18.60;;;4.87;;
7021;SDS011;3552;42.664;23.406;2022-09-29T04:48:40;23.93;;;6.47;;
7021;SDS011;3552;42.664;23.406;2022-09-29T04:51:09;14.97;;;5.30;;
7021;SDS011;3552;42.664;23.406;2022-09-29T04:53:36;15.20;;;5.60;;
7021;SDS011;3552;42.664;23.406;2022-09-29T04:56:06;13.27;;;6.20;;
7021;SDS011;3552;42.664;23.406;2022-09-29T04:58:34;11.50;;;5.57;;
7021;SDS011;3552;42.664;23.406;2022-09-29T05:01:05;7.33;;;4.73;;
7021;SDS011;3552;42.664;23.406;2022-09-29T05:03:34;14.70;;;4.87;;
7021;SDS011;3552;42.664;23.406;2022-09-29T05:06:01;8.10;;;4.10;;
7021;SDS011;3552;42.664;23.406;2022-09-29T05:08:29;6.53;;;3.87;;
7021;SDS011;3552;42.664;23.406;2022-09-29T05:10:56;7.23;;;4.10;;
7021;SDS011;3552;42.664;23.406;2022-09-29T05:13:25;11.50;;;4.40;;
7021;SDS011;3552;42.664;23.406;2022-09-29T05:15:54;7.27;;;3.80;;
7021;SDS011;3552;42.664;23.406;2022-09-29T05:18:23;10.13;;;4.30;;
7021;SDS011;3552;42.664;23.406;2022-09-29T05:20:51;18.93;;;5.17;;
7021;SDS011;3552;42.664;23.406;2022-09-29T05:23:19;18.03;;;5.50;;
7021;SDS011;3552;42.664;23.406;2022-09-29T05:25:48;15.93;;;6.20;;
7021;SDS011;3552;42.664;23.406;2022-09-29T05:28:15;11.70;;;5.03;;
7021;SDS011;3552;42.664;23.406;2022-09-29T05:30:42;25.07;;;5.70;;
7021;SDS011;3552;42.664;23.406;2022-09-29T05:33:09;14.67;;;5.23;;
7021;SDS011;3552;42.664;23.406;2022-09-29T05:35:37;13.87;;;4.83;;
7021;SDS011;3552;42.664;23.406;2022-09-29T05:38:03;21.67;;;5.90;;
7021;SDS011;3552;42.664;23.406;2022-09-29T05:40:32;36.40;;;7.63;;
7021;SDS011;3552;42.664;23.406;2022-09-29T05:43:00;18.50;;;5.90;;
7021;SDS011;3552;42.664;23.406;2022-09-29T05:45:29;13.57;;;5.63;;
7021;SDS011;3552;42.664;23.406;2022-09-29T05:47:57;14.60;;;5.20;;
7021;SDS011;3552;42.664;23.406;2022-09-29T05:50:25;10.07;;;4.47;;
7021;SDS011;3552;42.664;23.406;2022-09-29T05:52:52;25.77;;;5.70;;
7021;SDS011;3552;42.664;23.406;2022-09-29T05:55:19;11.23;;;4.50;;
7021;SDS011;3552;42.664;23.406;2022-09-29T05:57:48;8.83;;;4.30;;
7021;SDS011;3552;42.664;23.406;2022-09-29T06:00:17;13.17;;;4.53;;
7021;SDS011;3552;42.664;23.406;2022-09-29T06:02:44;13.23;;;3.90;;
7021;SDS011;3552;42.664;23.406;2022-09-29T06:05:13;7.33;;;4.33;;
7021;SDS011;3552;42.664;23.406;2022-09-29T06:08:09;9.57;;;3.97;;
7021;SDS011;3552;42.664;23.406;2022-09-29T06:10:37;11.50;;;3.73;;
7021;SDS011;3552;42.664;23.406;2022-09-29T06:13:04;11.00;;;3.90;;
7021;SDS011;3552;42.664;23.406;2022-09-29T06:15:35;9.43;;;4.03;;
7021;SDS011;3552;42.664;23.406;2022-09-29T06:18:02;5.23;;;3.33;;
7021;SDS011;3552;42.664;23.406;2022-09-29T06:20:30;9.83;;;5.63;;
7021;SDS011;3552;42.664;23.406;2022-09-29T06:23:02;7.70;;;4.00;;
7021;SDS011;3552;42.664;23.406;2022-09-29T06:25:29;9.60;;;3.90;;
7021;SDS011;3552;42.664;23.406;2022-09-29T06:27:57;9.03;;;3.70;;
7021;SDS011;3552;42.664;23.406;2022-09-29T06:30:24;9.17;;;3.50;;
7021;SDS011;3552;42.664;23.406;2022-09-29T06:32:53;7.40;;;3.93;;
7021;SDS011;3552;42.664;23.406;2022-09-29T06:35:20;8.43;;;3.70;;
7021;SDS011;3552;42.664;23.406;2022-09-29T06:38:05;14.73;;;3.57;;
7021;SDS011;3552;42.664;23.406;2022-09-29T06:40:32;12.23;;;3.87;;
7021;SDS011;3552;42.664;23.406;2022-09-29T06:42:59;12.80;;;3.07;;
7021;SDS011;3552;42.664;23.406;2022-09-29T06:45:27;12.70;;;3.37;;
7021;SDS011;3552;42.664;23.406;2022-09-29T06:47:58;10.90;;;3.10;;
7021;SDS011;3552;42.664;23.406;2022-09-29T06:50:27;10.70;;;3.20;;
7021;SDS011;3552;42.664;23.406;2022-09-29T06:52:54;8.73;;;2.63;;
7021;SDS011;3552;42.664;23.406;2022-09-29T06:55:21;5.07;;;2.67;;
7021;SDS011;3552;42.664;23.406;2022-09-29T06:57:48;4.13;;;2.50;;
7021;SDS011;3552;42.664;23.406;2022-09-29T07:00:15;12.37;;;2.33;;
7021;SDS011;3552;42.664;23.406;2022-09-29T07:02:43;10.47;;;2.70;;
7021;SDS011;3552;42.664;23.406;2022-09-29T07:05:15;8.53;;;2.57;;
7021;SDS011;3552;42.664;23.406;2022-09-29T07:07:42;6.60;;;2.30;;
7021;SDS011;3552;42.664;23.406;2022-09-29T07:10:09;5.60;;;2.10;;
7021;SDS011;3552;42.664;23.406;2022-09-29T07:12:40;5.97;;;2.30;;
7021;SDS011;3552;42.664;23.406;2022-09-29T07:15:11;11.87;;;2.70;;
7021;SDS011;3552;42.664;23.406;2022-09-29T07:17:40;5.93;;;2.50;;
7021;SDS011;3552;42.664;23.406;2022-09-29T07:20:08;6.47;;;2.73;;
7021;SDS011;3552;42.664;23.406;2022-09-29T07:22:37;3.90;;;2.30;;
7021;SDS011;3552;42.664;23.406;2022-09-29T07:25:05;8.63;;;2.40;;
7021;SDS011;3552;42.664;23.406;2022-09-29T07:27:33;5.37;;;2.40;;
7021;SDS011;3552;42.664;23.406;2022-09-29T07:30:01;10.13;;;3.20;;
7021;SDS011;3552;42.664;23.406;2022-09-29T07:32:30;9.10;;;2.60;;
7021;SDS011;3552;42.664;23.406;2022-09-29T07:35:00;4.63;;;2.43;;
7021;SDS011;3552;42.664;23.406;2022-09-29T07:37:27;11.93;;;2.40;;
7021;SDS011;3552;42.664;23.406;2022-09-29T07:39:56;11.07;;;2.63;;
7021;SDS011;3552;42.664;23.406;2022-09-29T07:42:24;9.10;;;2.70;;
7021;SDS011;3552;42.664;23.406;2022-09-29T07:44:54;6.37;;;2.50;;
7021;SDS011;3552;42.664;23.406;2022-09-29T07:47:23;5.57;;;2.40;;
7021;SDS011;3552;42.664;23.406;2022-09-29T07:49:51;13.43;;;2.53;;
7021;SDS011;3552;42.664;23.406;2022-09-29T07:52:18;13.20;;;2.90;;
7021;SDS011;3552;42.664;23.406;2022-09-29T07:54:46;12.03;;;2.83;;
7021;SDS011;3552;42.664;23.406;2022-09-29T07:57:18;6.47;;;2.63;;
7021;SDS011;3552;42.664;23.406;2022-09-29T07:59:45;13.00;;;3.07;;
7021;SDS011;3552;42.664;23.406;2022-09-29T08:02:14;5.80;;;2.43;;
7021;SDS011;3552;42.664;23.406;2022-09-29T08:04:42;8.20;;;2.53;;
7021;SDS011;3552;42.664;23.406;2022-09-29T08:07:09;4.10;;;2.50;;
7021;SDS011;3552;42.664;23.406;2022-09-29T08:09:36;5.77;;;2.40;;
7021;SDS011;3552;42.664;23.406;2022-09-29T08:12:04;8.67;;;2.50;;
7021;SDS011;3552;42.664;23.406;2022-09-29T08:14:34;5.77;;;2.70;;
7021;SDS011;3552;42.664;23.406;2022-09-29T08:17:02;4.30;;;2.70;;
7021;SDS011;3552;42.664;23.406;2022-09-29T08:19:43;7.23;;;2.37;;
7021;SDS011;3552;42.664;23.406;2022-09-29T08:22:12;9.60;;;2.77;;
7021;SDS011;3552;42.664;23.406;2022-09-29T08:24:40;5.03;;;2.67;;
7021;SDS011;3552;42.664;23.406;2022-09-29T08:27:08;5.40;;;2.23;;
7021;SDS011;3552;42.664;23.406;2022-09-29T08:29:38;5.20;;;2.77;;
7021;SDS011;3552;42.664;23.406;2022-09-29T08:32:06;4.50;;;2.20;;
7021;SDS011;3552;42.664;23.406;2022-09-29T08:34:33;6.13;;;2.20;;
7021;SDS011;3552;42.664;23.406;2022-09-29T08:37:00;8.30;;;2.83;;
7021;SDS011;3552;42.664;23.406;2022-09-29T08:39:28;6.50;;;2.40;;
7021;SDS011;3552;42.664;23.406;2022-09-29T08:42:04;8.13;;;2.50;;
7021;SDS011;3552;42.664;23.406;2022-09-29T08:44:40;6.70;;;2.70;;
7021;SDS011;3552;42.664;23.406;2022-09-29T08:47:17;7.73;;;2.80;;
7021;SDS011;3552;42.664;23.406;2022-09-29T08:49:51;11.13;;;3.03;;
7021;SDS011;3552;42.664;23.406;2022-09-29T08:52:29;7.00;;;2.53;;
7021;SDS011;3552;42.664;23.406;2022-09-29T08:55:07;7.27;;;3.03;;
7021;SDS011;3552;42.664;23.406;2022-09-29T08:57:49;4.40;;;2.30;;
7021;SDS011;3552;42.664;23.406;2022-09-29T09:00:24;11.53;;;2.80;;
7021;SDS011;3552;42.664;23.406;2022-09-29T09:03:07;8.10;;;2.93;;
7021;SDS011;3552;42.664;23.406;2022-09-29T09:05:51;7.30;;;2.47;;
7021;SDS011;3552;42.664;23.406;2022-09-29T09:08:39;6.90;;;2.63;;
7021;SDS011;3552;42.664;23.406;2022-09-29T09:11:23;5.60;;;2.20;;
7021;SDS011;3552;42.664;23.406;2022-09-29T09:14:02;8.90;;;2.10;;
7021;SDS011;3552;42.664;23.406;2022-09-29T09:16:44;12.83;;;2.97;;
7021;SDS011;3552;42.664;23.406;2022-09-29T09:22:18;6.23;;;2.07;;
7021;SDS011;3552;42.664;23.406;2022-09-29T09:24:48;6.67;;;2.57;;
7021;SDS011;3552;42.664;23.406;2022-09-29T09:27:22;6.40;;;2.70;;
7021;SDS011;3552;42.664;23.406;2022-09-29T09:29:57;9.33;;;2.50;;
7021;SDS011;3552;42.664;23.406;2022-09-29T09:32:34;9.60;;;2.60;;
7021;SDS011;3552;42.664;23.406;2022-09-29T09:35:15;15.73;;;2.87;;
7021;SDS011;3552;42.664;23.406;2022-09-29T09:37:50;7.87;;;2.13;;
7021;SDS011;3552;42.664;23.406;2022-09-29T09:40:20;5.27;;;1.93;;
7021;SDS011;3552;42.664;23.406;2022-09-29T09:42:57;3.57;;;1.80;;
7021;SDS011;3552;42.664;23.406;2022-09-29T09:45:30;7.23;;;2.10;;
7021;SDS011;3552;42.664;23.406;2022-09-29T09:48:03;4.50;;;2.20;;
7021;SDS011;3552;42.664;23.406;2022-09-29T09:50:38;6.63;;;2.00;;
7021;SDS011;3552;42.664;23.406;2022-09-29T09:53:09;6.73;;;2.40;;
7021;SDS011;3552;42.664;23.406;2022-09-29T09:55:40;6.43;;;2.70;;
7021;SDS011;3552;42.664;23.406;2022-09-29T09:58:11;6.03;;;2.27;;
7021;SDS011;3552;42.664;23.406;2022-09-29T10:00:54;5.40;;;2.20;;
7021;SDS011;3552;42.664;23.406;2022-09-29T10:03:26;8.93;;;2.40;;
7021;SDS011;3552;42.664;23.406;2022-09-29T10:05:53;5.70;;;1.97;;
7021;SDS011;3552;42.664;23.406;2022-09-29T10:08:22;11.43;;;2.47;;
7021;SDS011;3552;42.664;23.406;2022-09-29T10:10:51;7.60;;;2.57;;
7021;SDS011;3552;42.664;23.406;2022-09-29T10:13:19;9.23;;;2.20;;
7021;SDS011;3552;42.664;23.406;2022-09-29T10:15:51;6.97;;;2.27;;
7021;SDS011;3552;42.664;23.406;2022-09-29T10:18:22;4.83;;;1.80;;
7021;SDS011;3552;42.664;23.406;2022-09-29T10:20:54;2.60;;;1.90;;
7021;SDS011;3552;42.664;23.406;2022-09-29T10:23:25;3.93;;;2.13;;
7021;SDS011;3552;42.664;23.406;2022-09-29T10:26:07;5.60;;;2.07;;
7021;SDS011;3552;42.664;23.406;2022-09-29T10:28:40;6.47;;;2.50;;
7021;SDS011;3552;42.664;23.406;2022-09-29T10:31:20;12.17;;;2.40;;
7021;SDS011;3552;42.664;23.406;2022-09-29T10:33:53;10.40;;;2.83;;
7021;SDS011;3552;42.664;23.406;2022-09-29T10:36:23;13.67;;;3.43;;
7021;SDS011;3552;42.664;23.406;2022-09-29T10:38:52;13.40;;;2.80;;
7021;SDS011;3552;42.664;23.406;2022-09-29T10:41:20;8.30;;;2.23;;
7021;SDS011;3552;42.664;23.406;2022-09-29T10:43:49;11.60;;;2.47;;
7021;SDS011;3552;42.664;23.406;2022-09-29T10:46:34;6.33;;;2.60;;
7021;SDS011;3552;42.664;23.406;2022-09-29T10:49:11;8.90;;;2.10;;
7021;SDS011;3552;42.664;23.406;2022-09-29T10:51:40;8.57;;;2.10;;
7021;SDS011;3552;42.664;23.406;2022-09-29T10:54:13;2.63;;;2.10;;
7021;SDS011;3552;42.664;23.406;2022-09-29T10:56:44;3.07;;;1.83;;
7021;SDS011;3552;42.664;23.406;2022-09-29T10:59:14;4.77;;;1.90;;
7021;SDS011;3552;42.664;23.406;2022-09-29T11:01:43;4.97;;;1.90;;
7021;SDS011;3552;42.664;23.406;2022-09-29T11:04:17;3.03;;;1.93;;
7021;SDS011;3552;42.664;23.406;2022-09-29T11:06:48;6.80;;;1.70;;
7021;SDS011;3552;42.664;23.406;2022-09-29T11:09:27;3.20;;;1.93;;
7021;SDS011;3552;42.664;23.406;2022-09-29T11:11:56;4.57;;;2.37;;
7021;SDS011;3552;42.664;23.406;2022-09-29T11:14:26;4.33;;;2.13;;
7021;SDS011;3552;42.664;23.406;2022-09-29T11:16:56;2.63;;;1.90;;
7021;SDS011;3552;42.664;23.406;2022-09-29T11:19:26;5.20;;;2.30;;
7021;SDS011;3552;42.664;23.406;2022-09-29T11:25:18;3.63;;;2.03;;
7021;SDS011;3552;42.664;23.406;2022-09-29T11:28:14;6.73;;;2.00;;
7021;SDS011;3552;42.664;23.406;2022-09-29T11:31:02;5.70;;;2.07;;
7021;SDS011;3552;42.664;23.406;2022-09-29T11:33:45;4.77;;;1.80;;
7021;SDS011;3552;42.664;23.406;2022-09-29T11:36:24;2.73;;;2.00;;
7021;SDS011;3552;42.664;23.406;2022-09-29T11:39:02;3.13;;;2.10;;
7021;SDS011;3552;42.664;23.406;2022-09-29T11:41:54;2.57;;;1.90;;
7021;SDS011;3552;42.664;23.406;2022-09-29T11:44:38;2.53;;;1.73;;
7021;SDS011;3552;42.664;23.406;2022-09-29T11:47:22;4.27;;;2.30;;
7021;SDS011;3552;42.664;23.406;2022-09-29T11:50:25;6.03;;;2.30;;
7021;SDS011;3552;42.664;23.406;2022-09-29T11:56:01;2.80;;;2.10;;
7021;SDS011;3552;42.664;23.406;2022-09-29T11:58:45;3.00;;;1.97;;
7021;SDS011;3552;42.664;23.406;2022-09-29T12:01:25;8.10;;;2.63;;
7021;SDS011;3552;42.664;23.406;2022-09-29T12:04:09;3.27;;;2.30;;
7021;SDS011;3552;42.664;23.406;2022-09-29T12:06:54;6.43;;;2.43;;
7021;SDS011;3552;42.664;23.406;2022-09-29T12:09:47;6.00;;;2.37;;
7021;SDS011;3552;42.664;23.406;2022-09-29T12:12:29;5.77;;;2.60;;
7021;SDS011;3552;42.664;23.406;2022-09-29T12:15:06;5.17;;;2.13;;
7021;SDS011;3552;42.664;23.406;2022-09-29T12:17:50;6.87;;;2.30;;
7021;SDS011;3552;42.664;23.406;2022-09-29T12:20:23;5.90;;;2.70;;
7021;SDS011;3552;42.664;23.406;2022-09-29T12:22:53;9.33;;;2.93;;
7021;SDS011;3552;42.664;23.406;2022-09-29T12:25:32;6.90;;;2.67;;
7021;SDS011;3552;42.664;23.406;2022-09-29T12:28:06;7.83;;;2.50;;
7021;SDS011;3552;42.664;23.406;2022-09-29T12:30:42;4.47;;;2.50;;
7021;SDS011;3552;42.664;23.406;2022-09-29T12:33:17;6.37;;;2.73;;
7021;SDS011;3552;42.664;23.406;2022-09-29T12:35:53;5.97;;;2.37;;
7021;SDS011;3552;42.664;23.406;2022-09-29T12:38:52;10.83;;;3.57;;
7021;SDS011;3552;42.664;23.406;2022-09-29T12:41:30;12.80;;;3.20;;
7021;SDS011;3552;42.664;23.406;2022-09-29T12:44:04;14.47;;;3.00;;
7021;SDS011;3552;42.664;23.406;2022-09-29T12:46:45;5.43;;;2.17;;
7021;SDS011;3552;42.664;23.406;2022-09-29T12:49:21;5.30;;;2.50;;
7021;SDS011;3552;42.664;23.406;2022-09-29T12:51:55;11.40;;;2.80;;
7021;SDS011;3552;42.664;23.406;2022-09-29T12:54:24;6.57;;;2.30;;
7021;SDS011;3552;42.664;23.406;2022-09-29T12:56:59;8.30;;;3.00;;
7021;SDS011;3552;42.664;23.406;2022-09-29T12:59:32;6.67;;;2.57;;
7021;SDS011;3552;42.664;23.406;2022-09-29T13:02:04;6.23;;;2.53;;
7021;SDS011;3552;42.664;23.406;2022-09-29T13:05:05;5.33;;;2.80;;
7021;SDS011;3552;42.664;23.406;2022-09-29T13:08:00;11.77;;;3.03;;
7021;SDS011;3552;42.664;23.406;2022-09-29T13:10:56;6.00;;;2.50;;
7021;SDS011;3552;42.664;23.406;2022-09-29T13:13:37;4.67;;;2.30;;
7021;SDS011;3552;42.664;23.406;2022-09-29T13:16:42;2.40;;;2.00;;
7021;SDS011;3552;42.664;23.406;2022-09-29T13:19:39;6.77;;;2.40;;
7021;SDS011;3552;42.664;23.406;2022-09-29T13:22:32;13.07;;;3.37;;
7021;SDS011;3552;42.664;23.406;2022-09-29T13:25:18;11.17;;;3.50;;
7021;SDS011;3552;42.664;23.406;2022-09-29T13:28:10;7.60;;;2.87;;
7021;SDS011;3552;42.664;23.406;2022-09-29T13:30:51;4.57;;;1.50;;
7021;SDS011;3552;42.664;23.406;2022-09-29T13:33:21;5.03;;;2.67;;
7021;SDS011;3552;42.664;23.406;2022-09-29T13:35:51;4.10;;;2.23;;
7021;SDS011;3552;42.664;23.406;2022-09-29T13:38:19;11.83;;;3.63;;
7021;SDS011;3552;42.664;23.406;2022-09-29T13:41:09;4.60;;;2.27;;
7021;SDS011;3552;42.664;23.406;2022-09-29T13:44:01;6.63;;;2.57;;
7021;SDS011;3552;42.664;23.406;2022-09-29T13:46:38;5.40;;;1.97;;
7021;SDS011;3552;42.664;23.406;2022-09-29T13:49:13;6.37;;;1.83;;
7021;SDS011;3552;42.664;23.406;2022-09-29T13:51:48;3.27;;;1.87;;
7021;SDS011;3552;42.664;23.406;2022-09-29T13:54:23;3.47;;;1.70;;
7021;SDS011;3552;42.664;23.406;2022-09-29T14:00:00;8.80;;;1.70;;
7021;SDS011;3552;42.664;23.406;2022-09-29T14:02:45;3.93;;;1.60;;
7021;SDS011;3552;42.664;23.406;2022-09-29T14:08:11;1.80;;;1.70;;
7021;SDS011;3552;42.664;23.406;2022-09-29T14:10:43;4.27;;;1.63;;
7021;SDS011;3552;42.664;23.406;2022-09-29T14:13:14;5.83;;;1.83;;
7021;SDS011;3552;42.664;23.406;2022-09-29T14:15:49;5.90;;;1.90;;
7021;SDS011;3552;42.664;23.406;2022-09-29T14:18:25;4.93;;;2.00;;
7021;SDS011;3552;42.664;23.406;2022-09-29T14:20:58;2.60;;;2.20;;
7021;SDS011;3552;42.664;23.406;2022-09-29T14:23:50;7.03;;;2.33;;
7021;SDS011;3552;42.664;23.406;2022-09-29T14:29:29;5.90;;;2.30;;
7021;SDS011;3552;42.664;23.406;2022-09-29T14:32:09;4.57;;;2.23;;
7021;SDS011;3552;42.664;23.406;2022-09-29T14:34:45;3.53;;;2.20;;
7021;SDS011;3552;42.664;23.406;2022-09-29T14:37:15;3.90;;;1.80;;
7021;SDS011;3552;42.664;23.406;2022-09-29T14:39:45;6.03;;;1.90;;
7021;SDS011;3552;42.664;23.406;2022-09-29T14:42:36;3.50;;;2.30;;
7021;SDS011;3552;42.664;23.406;2022-09-29T14:45:03;7.43;;;2.93;;
7021;SDS011;3552;42.664;23.406;2022-09-29T14:47:52;6.23;;;3.00;;
7021;SDS011;3552;42.664;23.406;2022-09-29T14:50:47;4.23;;;2.60;;
7021;SDS011;3552;42.664;23.406;2022-09-29T14:53:40;4.70;;;3.03;;
7021;SDS011;3552;42.664;23.406;2022-09-29T14:56:25;5.77;;;2.90;;
7021;SDS011;3552;42.664;23.406;2022-09-29T14:59:05;5.90;;;2.97;;
7021;SDS011;3552;42.664;23.406;2022-09-29T15:01:55;4.80;;;3.50;;
7021;SDS011;3552;42.664;23.406;2022-09-29T15:04:37;6.37;;;3.60;;
7021;SDS011;3552;42.664;23.406;2022-09-29T15:07:08;5.33;;;3.13;;
7021;SDS011;3552;42.664;23.406;2022-09-29T15:09:38;4.33;;;3.47;;
7021;SDS011;3552;42.664;23.406;2022-09-29T15:12:12;8.73;;;4.00;;
7021;SDS011;3552;42.664;23.406;2022-09-29T15:14:40;6.40;;;3.67;;
7021;SDS011;3552;42.664;23.406;2022-09-29T15:17:11;10.17;;;4.40;;
7021;SDS011;3552;42.664;23.406;2022-09-29T15:19:49;6.90;;;3.97;;
7021;SDS011;3552;42.664;23.406;2022-09-29T15:22:27;10.07;;;5.70;;
7021;SDS011;3552;42.664;23.406;2022-09-29T15:25:20;9.07;;;5.53;;
7021;SDS011;3552;42.664;23.406;2022-09-29T15:27:52;7.53;;;4.77;;
7021;SDS011;3552;42.664;23.406;2022-09-29T15:30:27;5.90;;;4.30;;
7021;SDS011;3552;42.664;23.406;2022-09-29T15:33:02;6.90;;;4.50;;
7021;SDS011;3552;42.664;23.406;2022-09-29T15:35:46;13.57;;;5.00;;
7021;SDS011;3552;42.664;23.406;2022-09-29T15:38:25;8.50;;;5.17;;
7021;SDS011;3552;42.664;23.406;2022-09-29T15:40:57;6.97;;;5.40;;
7021;SDS011;3552;42.664;23.406;2022-09-29T15:43:27;9.80;;;5.43;;
7021;SDS011;3552;42.664;23.406;2022-09-29T15:45:58;8.27;;;5.07;;
7021;SDS011;3552;42.664;23.406;2022-09-29T15:48:45;5.77;;;3.83;;
7021;SDS011;3552;42.664;23.406;2022-09-29T15:51:31;8.07;;;3.80;;
7021;SDS011;3552;42.664;23.406;2022-09-29T15:53:59;9.80;;;4.20;;
7021;SDS011;3552;42.664;23.406;2022-09-29T15:56:29;9.00;;;4.87;;
7021;SDS011;3552;42.664;23.406;2022-09-29T15:59:18;9.87;;;5.20;;
7021;SDS011;3552;42.664;23.406;2022-09-29T16:01:45;7.00;;;4.57;;